Time;durP1;ratioP1;P1;durP2;ratioP2;P2;SDS_P1;SDS_P2;PMS_P1;PMS_P2;Temp;Humidity;BMP_temperature;BMP_pressure;BME280_temperature;BME280_humidity;BME280_pressure;Samples;Min_cycle;Max_cycle;Signal;HPM_P1;HPM_P2
2023/05/06 00:00:01;;;;;;;7.13;4.82;;;11.70;99.90;;;;;;5060864;28;20120;-60
2023/05/06 00:02:28;;;;;;;6.82;5.95;;;11.70;99.90;;;;;;5058676;28;20055;-60
2023/05/06 00:04:54;;;;;;;9.43;6.20;;;11.70;99.90;;;;;;5059525;28;20049;-60
2023/05/06 00:07:20;;;;;;;7.05;4.97;;;11.70;99.90;;;;;;5059141;28;20040;-59
2023/05/06 00:09:47;;;;;;;8.23;5.75;;;11.70;99.90;;;;;;5054947;28;20124;-60
2023/05/06 00:12:12;;;;;;;7.57;5.13;;;11.70;99.90;;;;;;5040404;28;20045;-60
2023/05/06 00:14:38;;;;;;;6.40;5.07;;;11.70;99.90;;;;;;5038552;28;20079;-60
2023/05/06 00:17:04;;;;;;;10.82;5.78;;;11.70;99.90;;;;;;5052289;28;20097;-60
2023/05/06 00:19:30;;;;;;;7.78;5.25;;;11.70;99.90;;;;;;5058294;28;20049;-61
2023/05/06 00:21:56;;;;;;;7.07;5.80;;;11.70;99.90;;;;;;5059795;28;20049;-60
2023/05/06 00:24:21;;;;;;;10.52;6.15;;;11.70;99.90;;;;;;5058661;28;20045;-60
2023/05/06 00:26:47;;;;;;;7.20;5.40;;;11.70;99.90;;;;;;5050830;28;20045;-60
2023/05/06 00:29:13;;;;;;;8.15;6.15;;;11.70;99.90;;;;;;5039800;28;20029;-60
2023/05/06 00:31:40;;;;;;;8.20;6.18;;;11.60;99.90;;;;;;5038031;28;20071;-60
2023/05/06 00:34:05;;;;;;;13.50;8.30;;;11.60;99.90;;;;;;5049318;28;20072;-60
2023/05/06 00:36:31;;;;;;;8.07;5.63;;;11.60;99.90;;;;;;5052623;28;20045;-60
2023/05/06 00:38:57;;;;;;;9.93;7.05;;;11.60;99.90;;;;;;5041802;28;20067;-60
2023/05/06 00:41:22;;;;;;;9.32;7.07;;;11.50;99.90;;;;;;5041476;28;20057;-60
2023/05/06 00:43:48;;;;;;;8.88;6.20;;;11.50;99.90;;;;;;5053012;28;20106;-60
2023/05/06 00:46:15;;;;;;;9.80;6.40;;;11.50;99.90;;;;;;5057698;28;20065;-60
2023/05/06 00:48:42;;;;;;;12.25;6.65;;;11.50;99.90;;;;;;5055062;28;20067;-61
2023/05/06 00:51:09;;;;;;;9.45;7.53;;;11.40;99.90;;;;;;5057382;28;20128;-61
2023/05/06 00:53:35;;;;;;;9.35;7.47;;;11.40;99.90;;;;;;5056025;28;20568;-60
2023/05/06 00:56:01;;;;;;;10.95;7.30;;;11.40;99.90;;;;;;5051905;28;20061;-62
2023/05/06 00:58:26;;;;;;;9.27;7.55;;;11.40;99.90;;;;;;5042403;28;20056;-60
2023/05/06 01:00:54;;;;;;;9.40;7.20;;;11.40;99.90;;;;;;5052976;28;20048;-61
2023/05/06 01:03:20;;;;;;;10.43;7.15;;;11.40;99.90;;;;;;5042131;28;20045;-60
2023/05/06 01:06:03;;;;;;;10.20;7.22;;;11.40;99.90;;;;;;5038178;28;20103;-60
2023/05/06 01:08:34;;;;;;;10.43;7.32;;;11.40;99.90;;;;;;5049699;28;20549;-59
2023/05/06 01:11:21;;;;;;;10.48;6.95;;;11.30;99.90;;;;;;5056226;28;20409;-59
2023/05/06 01:13:55;;;;;;;8.90;6.63;;;11.30;99.90;;;;;;5044387;28;20043;-59
2023/05/06 01:16:24;;;;;;;9.52;7.20;;;11.30;99.90;;;;;;5044536;28;20047;-58
2023/05/06 01:18:53;;;;;;;12.90;6.97;;;11.30;99.90;;;;;;5057501;28;20036;-60
2023/05/06 01:21:20;;;;;;;9.85;7.45;;;11.30;99.90;;;;;;5059461;28;20375;-60
2023/05/06 01:23:54;;;;;;;9.77;6.95;;;11.30;99.90;;;;;;5053822;28;20068;-59
2023/05/06 01:26:21;;;;;;;9.57;7.40;;;11.20;99.90;;;;;;5052747;28;20055;-60
2023/05/06 01:28:47;;;;;;;8.55;7.03;;;11.20;99.90;;;;;;5058215;28;20033;-59
2023/05/06 01:31:21;;;;;;;8.98;7.20;;;11.20;99.90;;;;;;5042074;28;20056;-60
2023/05/06 01:34:24;;;;;;;10.13;6.93;;;11.10;99.90;;;;;;5057155;28;20367;-59
2023/05/06 01:37:21;;;;;;;8.43;5.53;;;11.10;99.90;;;;;;5053584;28;20046;-60
2023/05/06 01:39:47;;;;;;;9.00;6.78;;;11.00;99.90;;;;;;5049264;28;20053;-60
2023/05/06 01:42:15;;;;;;;7.70;6.07;;;11.00;99.90;;;;;;5047233;28;20111;-59
2023/05/06 01:44:42;;;;;;;9.40;6.45;;;11.00;99.90;;;;;;5056783;28;20072;-60
2023/05/06 01:47:10;;;;;;;10.65;6.95;;;10.90;99.90;;;;;;5059503;28;20048;-59
2023/05/06 01:49:36;;;;;;;11.02;7.53;;;10.90;99.90;;;;;;5057608;28;20515;-60
2023/05/06 01:52:02;;;;;;;10.02;7.43;;;10.90;99.90;;;;;;5054729;28;20037;-60
2023/05/06 01:54:28;;;;;;;9.00;6.65;;;10.90;99.90;;;;;;5048369;28;20106;-59
2023/05/06 01:56:54;;;;;;;10.65;7.45;;;10.90;99.90;;;;;;5061852;28;20056;-59
2023/05/06 01:59:19;;;;;;;12.32;7.70;;;10.90;99.90;;;;;;5061809;28;20045;-59
2023/05/06 02:01:45;;;;;;;11.10;7.80;;;11.00;99.90;;;;;;5060857;28;20422;-59
2023/05/06 02:04:11;;;;;;;10.25;7.57;;;10.90;99.90;;;;;;5054296;28;20120;-60
2023/05/06 02:06:36;;;;;;;11.30;8.43;;;11.00;99.90;;;;;;5041216;28;20045;-59
2023/05/06 02:09:03;;;;;;;12.52;9.00;;;11.00;99.90;;;;;;5047211;28;20044;-59
2023/05/06 02:11:28;;;;;;;11.70;8.07;;;11.00;99.90;;;;;;5061990;28;20053;-59
2023/05/06 02:13:54;;;;;;;15.00;9.55;;;11.00;99.90;;;;;;5060081;28;20044;-60
2023/05/06 02:16:20;;;;;;;12.27;8.50;;;11.00;99.90;;;;;;5054371;28;20049;-59
2023/05/06 02:18:46;;;;;;;15.25;9.35;;;11.00;99.90;;;;;;5040727;28;20501;-60
2023/05/06 02:21:12;;;;;;;12.50;8.45;;;11.00;99.90;;;;;;5043007;28;20041;-59
2023/05/06 02:23:38;;;;;;;13.65;9.38;;;11.00;99.90;;;;;;5048124;28;20566;-59
2023/05/06 02:26:04;;;;;;;11.98;9.02;;;11.00;99.90;;;;;;5057016;28;20533;-59
2023/05/06 02:28:29;;;;;;;14.82;9.70;;;11.00;99.90;;;;;;5056079;28;20071;-60
2023/05/06 02:30:56;;;;;;;16.10;9.57;;;11.00;99.90;;;;;;5060936;28;20064;-60
2023/05/06 02:33:22;;;;;;;15.32;10.70;;;11.00;99.90;;;;;;5057213;28;20447;-60
2023/05/06 02:35:49;;;;;;;14.23;10.23;;;11.00;99.90;;;;;;5040516;28;20489;-59
2023/05/06 02:38:14;;;;;;;13.23;10.30;;;11.00;99.90;;;;;;5054775;28;20041;-58
2023/05/06 02:40:40;;;;;;;15.25;10.93;;;10.90;99.90;;;;;;5052884;28;20056;-59
2023/05/06 02:43:06;;;;;;;12.02;9.23;;;10.90;99.90;;;;;;5056422;28;20383;-60
2023/05/06 02:45:31;;;;;;;15.75;10.45;;;10.90;99.90;;;;;;5051244;28;20087;-59
2023/05/06 02:47:57;;;;;;;14.77;10.45;;;10.90;99.90;;;;;;5061026;28;20049;-59
2023/05/06 02:50:22;;;;;;;16.25;9.90;;;10.90;99.90;;;;;;5058739;28;20124;-59
2023/05/06 02:52:48;;;;;;;13.80;10.23;;;10.80;99.90;;;;;;5040664;28;20091;-59
2023/05/06 02:55:14;;;;;;;13.98;10.40;;;10.90;99.90;;;;;;5047264;28;20079;-60
2023/05/06 02:57:40;;;;;;;13.98;9.57;;;10.80;99.90;;;;;;5059314;28;20045;-59
2023/05/06 03:00:06;;;;;;;12.48;9.23;;;10.70;99.90;;;;;;5061196;28;20051;-59
2023/05/06 03:02:32;;;;;;;11.77;9.30;;;10.70;99.90;;;;;;5059221;28;20131;-57
2023/05/06 03:04:58;;;;;;;12.60;9.23;;;10.70;99.90;;;;;;5061249;28;20487;-60
2023/05/06 03:07:23;;;;;;;13.95;9.75;;;10.60;99.90;;;;;;5057070;28;20036;-59
2023/05/06 03:09:49;;;;;;;12.60;8.65;;;10.60;99.90;;;;;;5049015;28;20124;-59
2023/05/06 03:12:15;;;;;;;13.30;9.13;;;10.60;99.90;;;;;;5041722;28;20072;-59
2023/05/06 03:14:41;;;;;;;14.88;9.90;;;10.50;99.90;;;;;;5039757;28;20049;-59
2023/05/06 03:17:06;;;;;;;12.93;8.95;;;10.50;99.90;;;;;;5048829;28;20045;-59
2023/05/06 03:19:32;;;;;;;11.77;8.48;;;10.50;99.90;;;;;;5045563;28;20063;-59
2023/05/06 03:21:58;;;;;;;12.68;7.93;;;10.40;99.90;;;;;;5060886;28;20131;-59
2023/05/06 03:24:23;;;;;;;13.98;8.07;;;10.40;99.90;;;;;;5045460;28;20048;-59
2023/05/06 03:26:49;;;;;;;18.17;9.38;;;10.30;99.90;;;;;;5040196;28;20130;-60
2023/05/06 03:29:15;;;;;;;12.05;8.50;;;10.30;99.90;;;;;;5041345;28;20037;-59
2023/05/06 03:31:40;;;;;;;11.20;8.73;;;10.20;99.90;;;;;;5039229;28;20200;-59
2023/05/06 03:34:06;;;;;;;9.95;8.05;;;10.20;99.90;;;;;;5045856;28;20100;-60
2023/05/06 03:36:32;;;;;;;13.23;8.85;;;10.10;99.90;;;;;;5052768;28;20480;-59
2023/05/06 03:38:57;;;;;;;13.18;9.23;;;10.10;99.90;;;;;;5060059;28;20041;-60
2023/05/06 03:41:23;;;;;;;11.93;8.63;;;10.10;99.90;;;;;;5058374;28;20083;-59
2023/05/06 03:43:49;;;;;;;13.60;9.30;;;10.00;99.90;;;;;;5059729;28;20056;-60
2023/05/06 03:46:15;;;;;;;14.52;9.77;;;10.10;99.90;;;;;;5060190;28;20041;-59
2023/05/06 03:48:40;;;;;;;13.27;8.48;;;10.10;99.90;;;;;;5059531;28;20114;-60
2023/05/06 03:51:06;;;;;;;11.88;8.13;;;10.00;99.90;;;;;;5058067;28;20530;-60
2023/05/06 03:53:32;;;;;;;8.95;7.35;;;10.00;99.90;;;;;;5043037;28;20049;-59
2023/05/06 03:55:58;;;;;;;10.23;7.60;;;10.00;99.90;;;;;;5052742;28;20037;-59
2023/05/06 03:58:23;;;;;;;12.90;8.32;;;9.90;99.90;;;;;;5059756;28;20495;-59
2023/05/06 04:00:49;;;;;;;11.27;7.78;;;9.90;99.90;;;;;;5059916;28;20497;-60
2023/05/06 04:03:15;;;;;;;11.52;8.38;;;9.90;99.90;;;;;;5060054;28;20073;-59
2023/05/06 04:05:40;;;;;;;11.63;8.45;;;9.90;99.90;;;;;;5059095;28;20045;-60
2023/05/06 04:08:06;;;;;;;11.40;8.75;;;9.90;99.90;;;;;;5060154;28;20048;-61
2023/05/06 04:10:36;;;;;;;14.23;9.50;;;9.90;99.90;;;;;;5058809;28;20048;-59
2023/05/06 04:13:01;;;;;;;14.00;10.50;;;9.90;99.90;;;;;;5059235;28;20053;-60
2023/05/06 04:15:30;;;;;;;12.55;8.90;;;9.90;99.90;;;;;;5056191;28;20077;-60
2023/05/06 04:17:56;;;;;;;16.00;9.73;;;9.80;99.90;;;;;;5057243;28;20045;-60
2023/05/06 04:20:22;;;;;;;12.93;8.77;;;9.80;99.90;;;;;;5057739;28;20084;-59
2023/05/06 04:22:47;;;;;;;13.40;8.88;;;9.90;99.90;;;;;;5046120;28;20044;-59
2023/05/06 04:25:13;;;;;;;11.80;8.75;;;9.80;99.90;;;;;;5053372;28;20073;-59
2023/05/06 04:27:39;;;;;;;12.73;8.70;;;9.80;99.90;;;;;;5051067;28;20064;-59
2023/05/06 04:30:05;;;;;;;12.00;8.80;;;9.90;99.90;;;;;;5054938;28;20092;-59
2023/05/06 04:32:31;;;;;;;12.27;9.13;;;9.80;99.90;;;;;;5050404;28;20049;-59
2023/05/06 04:34:56;;;;;;;10.68;8.27;;;9.90;99.90;;;;;;5050095;28;20095;-60
2023/05/06 04:37:22;;;;;;;11.65;9.30;;;9.90;99.90;;;;;;5056173;28;20044;-59
2023/05/06 04:39:48;;;;;;;15.73;9.60;;;9.90;99.90;;;;;;5057081;28;20056;-60
2023/05/06 04:42:17;;;;;;;13.75;9.57;;;9.90;99.90;;;;;;5044319;28;20054;-59
2023/05/06 04:44:43;;;;;;;14.80;10.00;;;9.90;99.90;;;;;;5041560;28;20033;-60
2023/05/06 04:47:09;;;;;;;14.43;9.52;;;10.00;99.90;;;;;;5059945;28;20048;-59
2023/05/06 04:49:35;;;;;;;21.45;9.85;;;10.00;99.90;;;;;;5051787;28;20045;-60
2023/05/06 04:52:00;;;;;;;17.13;9.93;;;10.10;99.90;;;;;;5045378;28;20273;-59
2023/05/06 04:54:26;;;;;;;28.00;10.85;;;10.10;99.90;;;;;;5041624;28;20857;-60
2023/05/06 04:56:52;;;;;;;19.85;10.90;;;10.20;99.90;;;;;;5049258;28;20045;-60
2023/05/06 04:59:18;;;;;;;24.50;11.60;;;10.30;99.90;;;;;;5046738;28;20044;-60
2023/05/06 05:01:44;;;;;;;46.13;12.15;;;10.30;99.90;;;;;;5056785;28;20041;-60
2023/05/06 05:04:10;;;;;;;34.83;12.20;;;10.30;99.90;;;;;;5059715;28;20106;-60
2023/05/06 05:06:36;;;;;;;22.55;12.15;;;10.30;99.90;;;;;;5057846;28;20041;-59
2023/05/06 05:09:01;;;;;;;16.85;11.40;;;10.30;99.90;;;;;;5051139;28;20053;-60
2023/05/06 05:11:27;;;;;;;15.70;11.48;;;10.40;99.90;;;;;;5038838;28;20072;-59
2023/05/06 05:13:53;;;;;;;14.35;11.40;;;10.40;99.90;;;;;;5038290;28;20041;-60
2023/05/06 05:16:19;;;;;;;16.02;11.50;;;10.50;99.90;;;;;;5044729;28;20045;-59
2023/05/06 05:18:45;;;;;;;15.07;11.45;;;10.60;99.90;;;;;;5045105;28;20060;-59
2023/05/06 05:21:10;;;;;;;17.25;12.70;;;10.70;99.90;;;;;;5040785;28;20080;-60
2023/05/06 05:23:36;;;;;;;19.05;13.48;;;10.80;99.90;;;;;;5056324;28;20037;-60
2023/05/06 05:26:02;;;;;;;19.67;12.85;;;10.80;99.90;;;;;;5058375;28;20049;-60
2023/05/06 05:28:27;;;;;;;23.90;14.68;;;10.90;99.90;;;;;;5052682;28;20129;-60
2023/05/06 05:30:53;;;;;;;20.10;14.40;;;11.00;99.90;;;;;;5060505;28;20392;-60
2023/05/06 05:33:19;;;;;;;20.20;14.18;;;11.10;99.90;;;;;;5057762;28;20038;-60
2023/05/06 05:35:44;;;;;;;16.38;11.48;;;11.10;99.90;;;;;;5058612;28;20041;-60
2023/05/06 05:38:12;;;;;;;20.65;15.48;;;11.20;99.90;;;;;;5057492;28;20076;-60
2023/05/06 05:40:38;;;;;;;24.15;15.98;;;11.20;99.90;;;;;;5048341;28;20037;-60
2023/05/06 05:43:04;;;;;;;17.05;12.07;;;11.30;99.90;;;;;;5057235;28;20059;-60
2023/05/06 05:45:29;;;;;;;22.50;16.42;;;11.30;99.90;;;;;;5060152;28;20048;-59
2023/05/06 05:47:55;;;;;;;24.98;16.60;;;11.40;99.90;;;;;;5059085;28;20045;-60
2023/05/06 05:50:21;;;;;;;26.38;16.67;;;11.40;99.90;;;;;;5050546;28;20073;-60
2023/05/06 05:52:47;;;;;;;20.92;15.55;;;11.50;99.90;;;;;;5053394;28;20041;-59
2023/05/06 05:55:12;;;;;;;26.05;16.73;;;11.50;99.90;;;;;;5042910;28;20046;-59
2023/05/06 05:57:38;;;;;;;24.48;16.42;;;11.60;99.90;;;;;;5048899;28;20041;-59
2023/05/06 06:00:04;;;;;;;26.20;17.30;;;11.50;99.90;;;;;;5060561;28;20118;-59
2023/05/06 06:02:30;;;;;;;23.20;16.23;;;11.70;99.90;;;;;;5061209;28;20036;-59
2023/05/06 06:04:56;;;;;;;23.75;17.23;;;11.70;99.90;;;;;;5045929;28;20048;-60
2023/05/06 06:07:22;;;;;;;21.60;15.90;;;11.80;99.90;;;;;;5042228;28;20497;-60
2023/05/06 06:09:47;;;;;;;22.42;15.98;;;11.90;99.90;;;;;;5053753;28;20425;-59
2023/05/06 06:12:13;;;;;;;22.52;15.95;;;12.00;99.90;;;;;;5061083;28;20060;-59
2023/05/06 06:14:39;;;;;;;23.35;16.30;;;12.10;99.90;;;;;;5047271;28;20409;-59
2023/05/06 06:17:05;;;;;;;26.08;18.50;;;12.20;99.90;;;;;;5060122;28;20289;-59
2023/05/06 06:19:31;;;;;;;21.55;15.50;;;12.30;99.90;;;;;;5041847;28;20568;-59
2023/05/06 06:21:56;;;;;;;26.08;18.13;;;12.30;99.90;;;;;;5053027;28;20055;-60
2023/05/06 06:24:23;;;;;;;27.17;18.50;;;12.40;99.90;;;;;;5050312;28;20052;-59
2023/05/06 06:26:49;;;;;;;27.50;18.48;;;12.50;99.90;;;;;;5058719;28;20033;-60
2023/05/06 06:29:14;;;;;;;18.92;14.40;;;12.50;99.90;;;;;;5054552;28;20046;-59
2023/05/06 06:31:40;;;;;;;21.55;14.93;;;12.60;99.90;;;;;;5040095;28;20044;-60
2023/05/06 06:34:07;;;;;;;22.38;16.60;;;12.60;99.90;;;;;;5044480;28;20410;-59
2023/05/06 06:36:33;;;;;;;22.58;16.92;;;12.60;99.90;;;;;;5059639;28;20045;-59
2023/05/06 06:38:59;;;;;;;23.08;17.23;;;12.70;99.90;;;;;;5059982;28;20107;-60
2023/05/06 06:41:26;;;;;;;25.15;16.77;;;12.70;99.90;;;;;;5050585;28;20053;-59
2023/05/06 06:43:52;;;;;;;23.63;16.80;;;12.70;99.90;;;;;;5043081;28;20049;-59
2023/05/06 06:46:18;;;;;;;22.67;16.30;;;12.80;99.90;;;;;;5050976;28;20032;-58
2023/05/06 06:48:44;;;;;;;21.60;16.38;;;12.80;99.90;;;;;;5055930;28;20060;-59
2023/05/06 06:51:09;;;;;;;20.52;15.45;;;12.90;99.90;;;;;;5050936;28;20101;-59
2023/05/06 06:53:35;;;;;;;23.88;16.67;;;13.00;99.90;;;;;;5053704;28;20064;-59
2023/05/06 06:56:01;;;;;;;23.83;18.38;;;13.00;99.90;;;;;;5058278;28;20057;-60
2023/05/06 06:58:26;;;;;;;25.25;18.23;;;13.00;99.90;;;;;;5054968;28;20052;-59
2023/05/06 07:00:52;;;;;;;22.20;18.05;;;13.00;99.90;;;;;;5060608;28;20052;-60
2023/05/06 07:03:18;;;;;;;22.70;16.45;;;13.10;99.90;;;;;;5046682;28;20103;-60
2023/05/06 07:05:44;;;;;;;25.88;19.33;;;13.10;99.90;;;;;;5059408;28;20052;-59
2023/05/06 07:08:10;;;;;;;23.75;19.23;;;13.20;99.90;;;;;;5047792;28;20045;-59
2023/05/06 07:10:36;;;;;;;25.42;18.73;;;13.40;99.90;;;;;;5044960;28;20087;-59
2023/05/06 07:13:02;;;;;;;22.35;18.70;;;13.90;99.90;;;;;;5060322;28;20129;-60
2023/05/06 07:15:28;;;;;;;19.65;16.77;;;14.30;99.90;;;;;;5041134;28;20568;-59
2023/05/06 07:17:53;;;;;;;21.58;17.55;;;14.70;99.90;;;;;;5058300;28;20060;-59
2023/05/06 07:20:20;;;;;;;21.55;17.13;;;14.90;99.90;;;;;;5056758;28;20075;-59
2023/05/06 07:22:45;;;;;;;21.15;17.33;;;15.00;99.90;;;;;;5060104;28;20151;-60
2023/05/06 07:25:11;;;;;;;19.58;14.88;;;15.20;99.90;;;;;;5055335;28;20037;-59
2023/05/06 07:27:37;;;;;;;20.17;16.40;;;15.30;99.90;;;;;;5054987;28;20037;-60
2023/05/06 07:30:04;;;;;;;22.05;17.40;;;15.40;99.90;;;;;;5061173;28;20045;-60
2023/05/06 07:32:29;;;;;;;20.75;18.55;;;15.60;99.90;;;;;;5056221;28;20049;-59
2023/05/06 07:34:55;;;;;;;17.77;13.85;;;15.70;99.90;;;;;;5039048;28;20490;-60
2023/05/06 07:37:20;;;;;;;17.75;14.70;;;15.90;99.90;;;;;;5040593;28;20050;-60
2023/05/06 07:39:46;;;;;;;16.25;12.73;;;16.10;99.90;;;;;;5044047;28;20052;-60
2023/05/06 07:42:12;;;;;;;17.65;13.70;;;16.10;99.90;;;;;;5060513;28;20164;-60
2023/05/06 07:44:38;;;;;;;16.33;13.70;;;16.20;99.90;;;;;;5059149;28;20283;-60
2023/05/06 07:47:04;;;;;;;17.52;15.32;;;16.10;99.90;;;;;;5060727;28;20040;-59
2023/05/06 07:49:32;;;;;;;18.15;15.75;;;16.10;99.90;;;;;;5050332;28;20021;-59
2023/05/06 07:51:58;;;;;;;18.42;15.77;;;16.20;99.90;;;;;;5040498;28;20069;-60
2023/05/06 07:54:24;;;;;;;17.60;14.18;;;16.20;99.90;;;;;;5039674;28;20037;-59
2023/05/06 07:56:50;;;;;;;18.60;13.60;;;16.40;99.90;;;;;;5040024;28;20037;-60
2023/05/06 07:59:15;;;;;;;16.98;13.80;;;16.50;99.90;;;;;;5058137;28;20049;-60
2023/05/06 08:01:41;;;;;;;17.05;14.43;;;16.70;99.90;;;;;;5056608;28;20063;-60
2023/05/06 08:04:07;;;;;;;19.30;15.48;;;16.80;99.90;;;;;;5054432;28;20033;-60
2023/05/06 08:06:33;;;;;;;18.33;15.25;;;16.90;99.90;;;;;;5052439;28;20045;-59
2023/05/06 08:08:59;;;;;;;16.50;14.15;;;17.00;99.90;;;;;;5058776;28;20075;-60
2023/05/06 08:11:25;;;;;;;15.65;12.48;;;17.10;99.90;;;;;;5059359;28;20060;-60
2023/05/06 08:13:50;;;;;;;16.13;13.95;;;17.20;99.90;;;;;;5059026;28;20041;-59
2023/05/06 08:16:16;;;;;;;15.70;14.00;;;17.30;99.90;;;;;;5058610;28;20083;-58
2023/05/06 08:18:42;;;;;;;15.73;14.05;;;17.40;99.90;;;;;;5058299;28;20056;-60
2023/05/06 08:21:07;;;;;;;19.08;13.50;;;17.50;99.90;;;;;;5058491;28;20037;-60
2023/05/06 08:23:33;;;;;;;18.23;14.45;;;17.50;99.90;;;;;;5058263;28;20049;-60
2023/05/06 08:25:59;;;;;;;17.15;13.75;;;17.70;99.90;;;;;;5059996;28;20048;-59
2023/05/06 08:28:25;;;;;;;15.52;11.90;;;17.80;99.90;;;;;;5059150;28;20071;-60
2023/05/06 08:30:51;;;;;;;16.10;12.38;;;17.80;99.90;;;;;;5058870;28;20063;-60
2023/05/06 08:33:18;;;;;;;15.45;12.60;;;17.90;99.90;;;;;;5059366;28;20093;-59
2023/05/06 08:35:44;;;;;;;15.82;13.23;;;18.00;99.90;;;;;;5056395;28;20033;-60
2023/05/06 08:38:11;;;;;;;14.80;10.82;;;18.10;99.90;;;;;;5056653;28;20404;-60
2023/05/06 08:40:42;;;;;;;17.65;12.57;;;18.20;99.90;;;;;;5052286;28;20098;-60
2023/05/06 08:43:12;;;;;;;15.27;12.13;;;18.20;99.90;;;;;;5039529;28;20056;-60
2023/05/06 08:45:38;;;;;;;14.48;11.27;;;18.20;99.90;;;;;;5053377;28;20033;-59
2023/05/06 08:48:05;;;;;;;15.68;12.07;;;18.30;99.90;;;;;;5056547;28;20105;-59
2023/05/06 08:50:31;;;;;;;12.95;11.30;;;18.40;99.90;;;;;;5055900;28;20060;-58
2023/05/06 08:52:58;;;;;;;14.88;11.30;;;18.40;99.90;;;;;;5056046;28;20037;-59
2023/05/06 08:55:26;;;;;;;14.35;11.68;;;18.40;99.90;;;;;;5055741;28;20049;-59
2023/05/06 08:57:53;;;;;;;14.63;10.95;;;18.40;99.90;;;;;;5064501;28;20045;-59
2023/05/06 09:00:19;;;;;;;16.60;12.50;;;18.40;99.90;;;;;;5057531;28;20041;-59
2023/05/06 09:02:45;;;;;;;14.23;10.88;;;18.30;99.90;;;;;;5054641;28;20052;-58
2023/05/06 09:05:11;;;;;;;13.18;11.68;;;18.40;99.90;;;;;;5047576;28;20041;-58
2023/05/06 09:07:36;;;;;;;15.25;12.32;;;18.30;99.90;;;;;;5035360;28;20482;-59
2023/05/06 09:10:20;;;;;;;16.50;13.38;;;18.30;99.90;;;;;;5053346;28;20064;-63
2023/05/06 09:12:46;;;;;;;16.15;13.38;;;18.40;99.90;;;;;;5056895;28;20075;-59
2023/05/06 09:15:12;;;;;;;15.30;12.32;;;18.40;99.90;;;;;;5056631;28;20049;-59
2023/05/06 09:17:38;;;;;;;15.70;13.35;;;18.50;99.90;;;;;;5054755;28;20071;-59
2023/05/06 09:20:08;;;;;;;14.70;12.38;;;18.60;99.90;;;;;;5053987;28;20044;-59
2023/05/06 09:22:37;;;;;;;16.25;11.80;;;18.70;99.90;;;;;;5049074;28;20072;-59
2023/05/06 09:25:03;;;;;;;15.98;13.07;;;18.80;99.90;;;;;;5044180;28;20026;-59
2023/05/06 09:27:33;;;;;;;17.42;12.55;;;19.00;99.90;;;;;;5046755;28;20039;-59
2023/05/06 09:30:10;;;;;;;13.10;10.55;;;19.00;99.90;;;;;;5037801;28;20077;-59
2023/05/06 09:32:36;;;;;;;16.48;12.15;;;19.10;99.90;;;;;;5054940;28;20053;-57
2023/05/06 09:35:03;;;;;;;19.20;12.75;;;19.00;99.90;;;;;;5057422;28;20045;-60
2023/05/06 09:37:28;;;;;;;18.98;14.52;;;19.00;99.90;;;;;;5054522;28;20033;-60
2023/05/06 09:39:55;;;;;;;16.77;13.75;;;18.90;99.90;;;;;;5055609;28;20484;-58
2023/05/06 09:42:27;;;;;;;16.33;12.25;;;19.00;99.90;;;;;;5059096;28;20064;-59
2023/05/06 09:44:58;;;;;;;12.88;10.43;;;19.00;99.90;;;;;;5052775;28;20049;-60
2023/05/06 09:47:26;;;;;;;18.92;13.27;;;19.00;99.90;;;;;;5053836;28;20048;-59
2023/05/06 09:49:59;;;;;;;16.38;12.65;;;19.00;99.90;;;;;;5053626;28;20049;-58
2023/05/06 09:52:29;;;;;;;18.35;14.43;;;19.10;99.90;;;;;;5051990;28;20096;-59
2023/05/06 09:54:56;;;;;;;15.63;11.23;;;19.10;99.90;;;;;;5051249;28;20037;-58
2023/05/06 09:57:22;;;;;;;18.02;11.98;;;19.20;99.90;;;;;;5055940;28;20138;-60
2023/05/06 09:59:49;;;;;;;17.48;11.65;;;19.20;99.90;;;;;;5058417;28;20448;-57
2023/05/06 10:02:15;;;;;;;15.55;10.77;;;19.20;99.90;;;;;;5057075;28;20182;-57
2023/05/06 10:04:42;;;;;;;13.68;10.27;;;19.30;99.90;;;;;;5057652;28;20126;-58
2023/05/06 10:07:12;;;;;;;15.05;11.13;;;19.30;99.90;;;;;;5058042;28;20056;-59
2023/05/06 10:09:39;;;;;;;16.90;11.95;;;19.30;99.90;;;;;;5070011;28;20046;-58
2023/05/06 10:12:08;;;;;;;14.45;11.55;;;19.30;99.90;;;;;;5049434;28;20600;-57
2023/05/06 10:14:37;;;;;;;17.35;11.18;;;19.30;99.90;;;;;;5039265;28;20041;-57
2023/05/06 10:17:08;;;;;;;15.48;12.32;;;19.20;99.90;;;;;;5059880;28;20079;-59
2023/05/06 10:19:35;;;;;;;17.02;12.75;;;19.10;99.90;;;;;;5054402;28;20045;-59
2023/05/06 10:22:09;;;;;;;14.05;9.30;;;19.10;99.90;;;;;;5055256;28;20049;-59
2023/05/06 10:24:45;;;;;;;14.80;10.43;;;19.20;99.90;;;;;;5048472;28;20102;-59
2023/05/06 10:27:16;;;;;;;15.13;10.77;;;19.20;99.90;;;;;;5053168;28;20075;-60
2023/05/06 10:29:42;;;;;;;12.20;8.55;;;19.30;99.90;;;;;;5050786;28;20052;-60
2023/05/06 10:32:10;;;;;;;12.73;7.07;;;19.40;99.90;;;;;;5056592;28;20079;-59
2023/05/06 10:34:46;;;;;;;9.73;5.68;;;19.40;99.90;;;;;;5058304;28;20067;-59
2023/05/06 10:37:13;;;;;;;;;;;19.50;99.90;;;;;;5051862;28;20050;-60
2023/05/06 10:39:40;;;;;;;12.52;8.32;;;19.60;99.90;;;;;;5039496;28;19921;-60
2023/05/06 10:42:09;;;;;;;13.73;8.50;;;19.70;99.90;;;;;;5049542;28;20124;-59
2023/05/06 10:45:02;;;;;;;12.18;8.93;;;19.90;99.90;;;;;;5044244;28;20060;-59
2023/05/06 10:47:54;;;;;;;9.43;7.78;;;20.10;99.90;;;;;;5044744;28;20053;-59
2023/05/06 10:50:24;;;;;;;12.63;9.65;;;20.10;99.90;;;;;;5058059;28;20045;-59
2023/05/06 10:52:52;;;;;;;12.32;8.48;;;20.10;99.90;;;;;;5057983;28;20077;-60
2023/05/06 10:55:35;;;;;;;11.75;8.77;;;20.00;99.90;;;;;;5059871;28;20055;-60
2023/05/06 10:58:14;;;;;;;12.55;7.72;;;20.00;99.90;;;;;;5058665;28;20044;-60
2023/05/06 11:00:40;;;;;;;8.90;6.90;;;20.00;99.90;;;;;;5058524;28;20120;-60
2023/05/06 11:03:11;;;;;;;13.85;10.48;;;19.90;99.90;;;;;;5041533;28;20072;-59
2023/05/06 11:05:48;;;;;;;13.10;9.98;;;19.90;99.90;;;;;;5037778;28;20048;-59
2023/05/06 11:08:14;;;;;;;14.15;10.90;;;19.80;99.90;;;;;;5041797;28;20305;-59
2023/05/06 11:10:40;;;;;;;15.98;11.95;;;19.80;99.90;;;;;;5038896;28;20095;-60
2023/05/06 11:13:28;;;;;;;14.55;12.00;;;19.90;99.90;;;;;;5041418;28;20490;-60
2023/05/06 11:15:55;;;;;;;11.30;8.73;;;20.10;99.90;;;;;;5040876;28;20064;-59
2023/05/06 11:18:24;;;;;;;11.82;9.20;;;20.30;99.90;;;;;;5055382;28;20532;-60
2023/05/06 11:21:01;;;;;;;13.68;8.95;;;20.30;99.90;;;;;;5060283;28;20051;-60
2023/05/06 11:23:45;;;;;;;11.80;8.43;;;20.40;99.90;;;;;;5059429;28;20045;-59
2023/05/06 11:26:12;;;;;;;14.25;8.85;;;20.50;99.90;;;;;;5059912;28;20045;-59
2023/05/06 11:28:41;;;;;;;13.65;9.15;;;20.40;99.90;;;;;;5060403;28;20033;-59
2023/05/06 11:31:08;;;;;;;11.40;8.48;;;20.40;99.90;;;;;;5059489;28;20072;-60
2023/05/06 11:33:36;;;;;;;12.00;8.15;;;20.50;99.90;;;;;;5046921;28;20293;-59
2023/05/06 11:36:03;;;;;;;8.98;6.25;;;20.70;99.90;;;;;;5039447;28;20061;-60
2023/05/06 11:38:46;;;;;;;11.38;7.13;;;20.90;99.90;;;;;;5041033;28;20073;-60
2023/05/06 11:41:12;;;;;;;11.20;7.10;;;20.90;99.90;;;;;;5039981;28;20551;-59
2023/05/06 11:43:38;;;;;;;11.82;7.90;;;21.00;99.90;;;;;;5039958;28;20069;-60
2023/05/06 11:46:05;;;;;;;11.90;7.63;;;21.00;99.90;;;;;;5040733;28;20045;-60
2023/05/06 11:48:31;;;;;;;9.85;6.65;;;21.00;99.90;;;;;;5039309;28;20038;-60
2023/05/06 11:50:56;;;;;;;11.10;6.57;;;21.10;99.90;;;;;;5040980;28;20072;-60
2023/05/06 11:53:23;;;;;;;8.90;6.53;;;21.20;99.90;;;;;;5048214;28;20051;-60
2023/05/06 11:55:51;;;;;;;13.18;7.05;;;21.20;99.90;;;;;;5057547;28;20076;-60
2023/05/06 11:58:24;;;;;;;8.75;5.30;;;21.20;99.90;;;;;;5059747;28;20536;-60
2023/05/06 12:00:55;;;;;;;9.50;6.13;;;21.20;99.90;;;;;;5059356;28;20075;-60
2023/05/06 12:03:23;;;;;;;12.73;8.07;;;21.20;99.90;;;;;;5060503;28;20041;-60
2023/05/06 12:05:49;;;;;;;12.77;8.73;;;21.30;99.90;;;;;;5058646;28;20072;-60
2023/05/06 12:08:24;;;;;;;10.95;7.15;;;21.30;99.90;;;;;;5059346;28;20100;-60
2023/05/06 12:10:52;;;;;;;12.27;8.38;;;21.30;99.90;;;;;;5056717;28;20048;-60
2023/05/06 12:13:19;;;;;;;13.52;7.25;;;21.20;99.90;;;;;;5059809;28;20052;-60
2023/05/06 12:15:46;;;;;;;13.32;7.40;;;21.30;99.90;;;;;;5059660;28;20040;-60
2023/05/06 12:18:12;;;;;;;11.45;7.50;;;21.40;99.90;;;;;;5057680;28;20075;-60
2023/05/06 12:20:38;;;;;;;11.75;8.45;;;21.50;99.90;;;;;;5060239;28;20663;-59
2023/05/06 12:23:14;;;;;;;10.90;6.38;;;21.60;99.90;;;;;;5058357;28;20080;-61
2023/05/06 12:25:42;;;;;;;7.93;4.53;;;21.80;99.90;;;;;;5059950;28;20041;-60
2023/05/06 12:28:19;;;;;;;11.43;5.70;;;21.90;99.90;;;;;;5059147;28;20116;-60
2023/05/06 12:30:45;;;;;;;10.07;6.13;;;21.90;99.60;;;;;;5058692;28;20069;-60
2023/05/06 12:33:11;;;;;;;10.05;6.03;;;21.90;99.30;;;;;;5057999;28;20408;-58